TimeCET,TemperatureF,Dew PointF,Humidity,Sea Level PressureIn,VisibilityMPH,Wind Direction,Wind SpeedMPH,Gust SpeedMPH,PrecipitationIn,Events,Conditions,WindDirDegrees,DateUTC
12:25 AM,44.6,44.6,100,29.47,6.2,South,10.4,-,N/A,,Scattered Clouds,170,2012-12-15 23:25:00
12:55 AM,44.6,44.6,100,29.47,6.2,South,11.5,-,N/A,Rain,Light Rain Showers,170,2012-12-15 23:55:00
1:00 AM,46,44,89,29.48,5,South,11.2,,,Rain,Drizzle,170,2012-12-16 00:00:00
1:25 AM,46.4,44.6,93,29.47,6.2,South,10.4,-,N/A,Rain,Light Rain,180,2012-12-16 00:25:00
1:55 AM,46.4,44.6,93,29.47,6.2,South,10.4,-,N/A,,Mostly Cloudy,180,2012-12-16 00:55:00
2:25 AM,46.4,42.8,87,29.47,6.2,SSW,11.5,-,N/A,,Mostly Cloudy,200,2012-12-16 01:25:00
2:55 AM,44.6,42.8,93,29.47,3.7,SSW,13.8,-,N/A,Rain,Light Rain,210,2012-12-16 01:55:00
3:25 AM,44.6,42.8,93,29.47,6.2,SSW,12.7,-,N/A,Rain,Light Rain Showers,210,2012-12-16 02:25:00
3:55 AM,44.6,42.8,93,29.47,6.2,SSW,12.7,-,N/A,Rain,Light Rain Showers,210,2012-12-16 02:55:00
4:00 AM,45,43,92,29.50,8,SSW,11.2,,,Rain,Drizzle,210,2012-12-16 03:00:00
4:25 AM,44.6,42.8,93,29.47,6.2,SSW,13.8,-,N/A,Rain,Light Rain Showers,210,2012-12-16 03:25:00
4:55 AM,44.6,42.8,93,29.47,6.2,SSW,16.1,-,N/A,,Mostly Cloudy,210,2012-12-16 03:55:00
5:25 AM,44.6,42.8,93,29.50,6.2,SSW,15.0,-,N/A,Rain,Light Rain Showers,210,2012-12-16 04:25:00
5:55 AM,44.6,42.8,93,29.50,6.2,SW,12.7,-,N/A,Rain,Light Rain Showers,220,2012-12-16 04:55:00
6:25 AM,44.6,42.8,93,29.50,5.6,SW,13.8,-,N/A,Rain,Light Rain Showers,220,2012-12-16 05:25:00
6:55 AM,44.6,42.8,93,29.50,6.2,SW,11.5,-,N/A,Rain,Light Rain,220,2012-12-16 05:55:00
7:00 AM,45,43,91,29.54,12,SSW,13.4,,,Rain,Light Drizzle,210,2012-12-16 06:00:00
7:25 AM,44.6,42.8,93,29.53,6.2,SSW,12.7,-,N/A,,Mostly Cloudy,210,2012-12-16 06:25:00
7:55 AM,44.6,42.8,93,29.53,5.6,SSW,16.1,-,N/A,Rain,Light Rain,210,2012-12-16 06:55:00
8:25 AM,44.6,42.8,93,29.53,6.2,SSW,13.8,-,N/A,Rain,Light Rain,210,2012-12-16 07:25:00
8:55 AM,44.6,42.8,93,29.53,6.2,SSW,13.8,-,N/A,,Mostly Cloudy,210,2012-12-16 07:55:00
9:25 AM,44.6,42.8,93,29.56,6.2,SSW,16.1,-,N/A,,Mostly Cloudy,210,2012-12-16 08:25:00
9:55 AM,44.6,42.8,93,29.56,6.2,SSW,13.8,-,N/A,,Mostly Cloudy,200,2012-12-16 08:55:00
10:00 AM,45,42,87,29.57,15,SSW,13.4,,,,Partly Cloudy,200,2012-12-16 09:00:00
10:25 AM,44.6,42.8,93,29.56,6.2,SSW,16.1,-,N/A,,Scattered Clouds,210,2012-12-16 09:25:00
10:55 AM,44.6,41.0,87,29.56,6.2,SSW,15.0,-,N/A,,Scattered Clouds,210,2012-12-16 09:55:00
11:25 AM,44.6,42.8,93,29.56,6.2,SW,15.0,-,N/A,Rain,Light Rain Showers,220,2012-12-16 10:25:00
11:55 AM,44.6,42.8,93,29.59,6.2,SW,12.7,-,N/A,Rain,Light Rain Showers,220,2012-12-16 10:55:00
12:25 PM,46.4,42.8,87,29.56,6.2,SSW,15.0,-,N/A,,Scattered Clouds,210,2012-12-16 11:25:00
12:55 PM,46.4,44.6,93,29.56,6.2,SSW,12.7,-,N/A,,Scattered Clouds,210,2012-12-16 11:55:00
1:00 PM,46,43,87,29.59,17,SSW,13.4,,,Rain,Rain,210,2012-12-16 12:00:00
1:25 PM,46.4,42.8,87,29.56,6.2,SSW,15.0,-,N/A,,Mostly Cloudy,210,2012-12-16 12:25:00
1:55 PM,46.4,42.8,87,29.56,6.2,SSW,12.7,-,N/A,,Mostly Cloudy,210,2012-12-16 12:55:00
2:25 PM,46.4,42.8,87,29.56,6.2,SSW,12.7,-,N/A,Rain,Light Rain Showers,210,2012-12-16 13:25:00
2:55 PM,44.6,42.8,93,29.56,6.2,SSW,11.5,-,N/A,,Mostly Cloudy,210,2012-12-16 13:55:00
3:25 PM,44.6,42.8,93,29.56,6.2,SSW,10.4,-,N/A,,Mostly Cloudy,210,2012-12-16 14:25:00
3:55 PM,44.6,42.8,93,29.56,6.2,SSW,9.2,-,N/A,,Scattered Clouds,200,2012-12-16 14:55:00
4:00 PM,45,43,90,29.59,14,SSW,11.2,,,,Overcast,200,2012-12-16 15:00:00
4:25 PM,44.6,42.8,93,29.59,6.2,SSW,9.2,-,N/A,,Mostly Cloudy,200,2012-12-16 15:25:00
4:55 PM,44.6,42.8,93,29.56,6.2,SSW,10.4,-,N/A,,Overcast,200,2012-12-16 15:55:00
5:25 PM,44.6,42.8,93,29.59,6.2,SSW,11.5,-,N/A,,Mostly Cloudy,200,2012-12-16 16:25:00
5:55 PM,44.6,42.8,93,29.59,6.2,SSW,10.4,-,N/A,,Mostly Cloudy,200,2012-12-16 16:55:00
6:25 PM,44.6,42.8,93,29.59,6.2,SSW,8.1,-,N/A,,Mostly Cloudy,200,2012-12-16 17:25:00
6:55 PM,44.6,42.8,93,29.59,6.2,South,9.2,-,N/A,Rain,Light Rain,190,2012-12-16 17:55:00
7:00 PM,45,43,90,29.61,7,South,8.9,,,Rain,Light Rain Showers,190,2012-12-16 18:00:00
7:25 PM,44.6,42.8,93,29.59,6.2,South,9.2,-,N/A,,Mostly Cloudy,190,2012-12-16 18:25:00
7:55 PM,44.6,42.8,93,29.59,6.2,SSW,8.1,-,N/A,,Mostly Cloudy,200,2012-12-16 18:55:00
8:25 PM,44.6,42.8,93,29.59,6.2,SSW,8.1,-,N/A,,Mostly Cloudy,200,2012-12-16 19:25:00
8:55 PM,44.6,42.8,93,29.59,6.2,SSW,10.4,-,N/A,,Mostly Cloudy,200,2012-12-16 19:55:00
9:25 PM,44.6,42.8,93,29.59,6.2,SSW,10.4,-,N/A,,Mostly Cloudy,200,2012-12-16 20:25:00
9:55 PM,44.6,42.8,93,29.59,6.2,SSW,10.4,-,N/A,,Mostly Cloudy,200,2012-12-16 20:55:00
10:00 PM,44,42,91,29.60,7,SSW,8.9,,,,Partly Cloudy,200,2012-12-16 21:00:00
10:25 PM,42.8,41.0,93,29.59,6.2,SSW,8.1,-,N/A,,Scattered Clouds,200,2012-12-16 21:25:00
10:55 PM,41.0,39.2,93,29.59,5.6,South,8.1,-,N/A,,Partly Cloudy,190,2012-12-16 21:55:00
11:25 PM,39.2,37.4,93,29.59,6.2,South,5.8,-,N/A,,Partly Cloudy,170,2012-12-16 22:25:00
11:55 PM,39.2,39.2,100,29.59,5.0,South,8.1,-,N/A,,Scattered Clouds,170,2012-12-16 22:55:00